sensor_id;sensor_type;location;lat;lon;timestamp;P1;durP1;ratioP1;P2;durP2;ratioP2
78732;SDS011;68056;52.530;5.454;2023-05-10T00:00:14;8.68;;;4.78;;
78732;SDS011;68056;52.530;5.454;2023-05-10T00:02:40;8.45;;;5.03;;
78732;SDS011;68056;52.530;5.454;2023-05-10T00:05:06;7.82;;;4.50;;
78732;SDS011;68056;52.530;5.454;2023-05-10T00:07:37;9.43;;;4.70;;
78732;SDS011;68056;52.530;5.454;2023-05-10T00:10:02;9.15;;;4.97;;
78732;SDS011;68056;52.530;5.454;2023-05-10T00:12:28;9.25;;;4.68;;
78732;SDS011;68056;52.530;5.454;2023-05-10T00:14:54;9.48;;;4.88;;
78732;SDS011;68056;52.530;5.454;2023-05-10T00:17:19;5.63;;;3.75;;
78732;SDS011;68056;52.530;5.454;2023-05-10T00:19:45;10.88;;;4.72;;
78732;SDS011;68056;52.530;5.454;2023-05-10T00:22:11;9.13;;;5.03;;
78732;SDS011;68056;52.530;5.454;2023-05-10T00:24:46;7.63;;;4.45;;
78732;SDS011;68056;52.530;5.454;2023-05-10T00:27:11;7.80;;;4.53;;
78732;SDS011;68056;52.530;5.454;2023-05-10T00:29:37;7.00;;;3.70;;
78732;SDS011;68056;52.530;5.454;2023-05-10T00:32:20;7.70;;;4.30;;
78732;SDS011;68056;52.530;5.454;2023-05-10T00:34:49;6.78;;;3.92;;
78732;SDS011;68056;52.530;5.454;2023-05-10T00:37:14;5.50;;;3.53;;
78732;SDS011;68056;52.530;5.454;2023-05-10T00:39:40;4.75;;;3.20;;
78732;SDS011;68056;52.530;5.454;2023-05-10T00:42:05;6.63;;;4.03;;
78732;SDS011;68056;52.530;5.454;2023-05-10T00:44:34;6.63;;;2.95;;
78732;SDS011;68056;52.530;5.454;2023-05-10T00:47:00;6.05;;;3.03;;
78732;SDS011;68056;52.530;5.454;2023-05-10T00:49:25;4.80;;;2.80;;
78732;SDS011;68056;52.530;5.454;2023-05-10T00:51:54;5.03;;;2.88;;
78732;SDS011;68056;52.530;5.454;2023-05-10T00:54:20;5.72;;;3.50;;
78732;SDS011;68056;52.530;5.454;2023-05-10T00:56:46;5.03;;;2.95;;
78732;SDS011;68056;52.530;5.454;2023-05-10T00:59:14;4.72;;;3.35;;
78732;SDS011;68056;52.530;5.454;2023-05-10T01:01:41;6.05;;;3.60;;
78732;SDS011;68056;52.530;5.454;2023-05-10T01:04:08;7.43;;;3.22;;
78732;SDS011;68056;52.530;5.454;2023-05-10T01:06:35;4.80;;;3.20;;
78732;SDS011;68056;52.530;5.454;2023-05-10T01:09:01;4.95;;;2.65;;
78732;SDS011;68056;52.530;5.454;2023-05-10T01:11:27;5.88;;;3.00;;
78732;SDS011;68056;52.530;5.454;2023-05-10T01:13:55;5.30;;;3.22;;
78732;SDS011;68056;52.530;5.454;2023-05-10T01:16:22;5.30;;;3.05;;
78732;SDS011;68056;52.530;5.454;2023-05-10T01:18:49;4.85;;;2.70;;
78732;SDS011;68056;52.530;5.454;2023-05-10T01:24:09;4.50;;;2.60;;
78732;SDS011;68056;52.530;5.454;2023-05-10T01:38:42;5.93;;;3.03;;
78732;SDS011;68056;52.530;5.454;2023-05-10T01:43:55;5.80;;;3.10;;
78732;SDS011;68056;52.530;5.454;2023-05-10T01:46:28;4.50;;;2.45;;
78732;SDS011;68056;52.530;5.454;2023-05-10T01:49:21;6.97;;;3.40;;
78732;SDS011;68056;52.530;5.454;2023-05-10T01:51:50;5.20;;;3.50;;
78732;SDS011;68056;52.530;5.454;2023-05-10T01:54:20;5.28;;;3.45;;
78732;SDS011;68056;52.530;5.454;2023-05-10T01:56:47;6.43;;;3.75;;
78732;SDS011;68056;52.530;5.454;2023-05-10T01:59:22;8.27;;;4.28;;
78732;SDS011;68056;52.530;5.454;2023-05-10T02:01:54;5.97;;;3.42;;
78732;SDS011;68056;52.530;5.454;2023-05-10T02:04:23;5.25;;;3.40;;
78732;SDS011;68056;52.530;5.454;2023-05-10T02:06:50;5.28;;;3.45;;
78732;SDS011;68056;52.530;5.454;2023-05-10T02:09:18;7.85;;;3.88;;
78732;SDS011;68056;52.530;5.454;2023-05-10T02:11:45;7.10;;;3.65;;
78732;SDS011;68056;52.530;5.454;2023-05-10T02:14:13;5.72;;;3.50;;
78732;SDS011;68056;52.530;5.454;2023-05-10T02:16:40;7.45;;;4.07;;
78732;SDS011;68056;52.530;5.454;2023-05-10T02:19:07;6.50;;;3.63;;
78732;SDS011;68056;52.530;5.454;2023-05-10T02:21:35;5.75;;;3.63;;
78732;SDS011;68056;52.530;5.454;2023-05-10T02:24:02;8.23;;;4.53;;
78732;SDS011;68056;52.530;5.454;2023-05-10T02:26:29;8.60;;;4.82;;
78732;SDS011;68056;52.530;5.454;2023-05-10T02:28:56;9.52;;;5.22;;
78732;SDS011;68056;52.530;5.454;2023-05-10T02:31:23;10.45;;;5.68;;
78732;SDS011;68056;52.530;5.454;2023-05-10T02:33:49;9.90;;;5.60;;
78732;SDS011;68056;52.530;5.454;2023-05-10T02:36:16;9.35;;;5.28;;
78732;SDS011;68056;52.530;5.454;2023-05-10T02:38:42;14.23;;;6.88;;
78732;SDS011;68056;52.530;5.454;2023-05-10T02:41:09;12.00;;;5.35;;
78732;SDS011;68056;52.530;5.454;2023-05-10T02:43:36;10.63;;;5.35;;
78732;SDS011;68056;52.530;5.454;2023-05-10T02:46:04;12.52;;;5.50;;
78732;SDS011;68056;52.530;5.454;2023-05-10T02:48:30;8.07;;;4.85;;
78732;SDS011;68056;52.530;5.454;2023-05-10T02:50:59;10.88;;;5.90;;
78732;SDS011;68056;52.530;5.454;2023-05-10T02:53:33;10.40;;;5.35;;
78732;SDS011;68056;52.530;5.454;2023-05-10T02:56:01;10.43;;;5.82;;
78732;SDS011;68056;52.530;5.454;2023-05-10T02:58:32;8.65;;;4.70;;
78732;SDS011;68056;52.530;5.454;2023-05-10T03:00:57;8.40;;;5.40;;
78732;SDS011;68056;52.530;5.454;2023-05-10T03:03:24;7.97;;;4.38;;
78732;SDS011;68056;52.530;5.454;2023-05-10T03:05:50;8.48;;;4.20;;
78732;SDS011;68056;52.530;5.454;2023-05-10T03:08:15;8.20;;;4.80;;
78732;SDS011;68056;52.530;5.454;2023-05-10T03:10:45;9.07;;;4.32;;
78732;SDS011;68056;52.530;5.454;2023-05-10T03:16:21;10.63;;;5.25;;
78732;SDS011;68056;52.530;5.454;2023-05-10T03:19:01;7.38;;;4.28;;
78732;SDS011;68056;52.530;5.454;2023-05-10T03:21:30;6.88;;;4.00;;
78732;SDS011;68056;52.530;5.454;2023-05-10T03:24:06;5.65;;;3.65;;
78732;SDS011;68056;52.530;5.454;2023-05-10T03:26:35;6.55;;;4.53;;
78732;SDS011;68056;52.530;5.454;2023-05-10T03:29:03;6.80;;;3.95;;
78732;SDS011;68056;52.530;5.454;2023-05-10T03:33:55;4.55;;;3.40;;
78732;SDS011;68056;52.530;5.454;2023-05-10T03:36:21;5.03;;;3.33;;
78732;SDS011;68056;52.530;5.454;2023-05-10T03:38:47;6.97;;;4.35;;
78732;SDS011;68056;52.530;5.454;2023-05-10T03:41:12;9.93;;;5.13;;
78732;SDS011;68056;52.530;5.454;2023-05-10T03:43:38;8.43;;;4.70;;
78732;SDS011;68056;52.530;5.454;2023-05-10T03:46:04;8.48;;;4.85;;
78732;SDS011;68056;52.530;5.454;2023-05-10T03:48:31;12.77;;;5.82;;
78732;SDS011;68056;52.530;5.454;2023-05-10T03:50:58;12.68;;;5.72;;
78732;SDS011;68056;52.530;5.454;2023-05-10T03:53:23;11.50;;;5.55;;
78732;SDS011;68056;52.530;5.454;2023-05-10T03:55:50;8.50;;;5.65;;
78732;SDS011;68056;52.530;5.454;2023-05-10T03:58:16;11.80;;;5.47;;
78732;SDS011;68056;52.530;5.454;2023-05-10T04:00:41;10.45;;;5.07;;
78732;SDS011;68056;52.530;5.454;2023-05-10T04:03:10;12.18;;;5.15;;
78732;SDS011;68056;52.530;5.454;2023-05-10T04:05:36;12.90;;;6.05;;
78732;SDS011;68056;52.530;5.454;2023-05-10T04:08:02;11.10;;;5.13;;
78732;SDS011;68056;52.530;5.454;2023-05-10T04:10:28;9.23;;;5.65;;
78732;SDS011;68056;52.530;5.454;2023-05-10T04:12:55;11.40;;;5.93;;
78732;SDS011;68056;52.530;5.454;2023-05-10T04:15:20;11.30;;;4.78;;
78732;SDS011;68056;52.530;5.454;2023-05-10T04:17:46;11.38;;;5.28;;
78732;SDS011;68056;52.530;5.454;2023-05-10T04:20:12;15.20;;;6.05;;
78732;SDS011;68056;52.530;5.454;2023-05-10T04:22:37;10.35;;;5.20;;
78732;SDS011;68056;52.530;5.454;2023-05-10T04:25:03;12.45;;;5.55;;
78732;SDS011;68056;52.530;5.454;2023-05-10T04:27:31;10.18;;;4.82;;
78732;SDS011;68056;52.530;5.454;2023-05-10T04:29:57;9.63;;;4.95;;
78732;SDS011;68056;52.530;5.454;2023-05-10T04:32:22;12.80;;;5.20;;
78732;SDS011;68056;52.530;5.454;2023-05-10T04:34:48;11.23;;;4.85;;
78732;SDS011;68056;52.530;5.454;2023-05-10T04:37:14;13.05;;;6.03;;
78732;SDS011;68056;52.530;5.454;2023-05-10T04:39:39;11.98;;;5.43;;
78732;SDS011;68056;52.530;5.454;2023-05-10T04:42:05;13.23;;;5.78;;
78732;SDS011;68056;52.530;5.454;2023-05-10T04:44:31;14.52;;;5.47;;
78732;SDS011;68056;52.530;5.454;2023-05-10T04:46:57;9.65;;;5.30;;
78732;SDS011;68056;52.530;5.454;2023-05-10T04:49:22;13.40;;;5.35;;
78732;SDS011;68056;52.530;5.454;2023-05-10T04:51:48;13.88;;;5.75;;
78732;SDS011;68056;52.530;5.454;2023-05-10T04:54:14;13.23;;;5.53;;
78732;SDS011;68056;52.530;5.454;2023-05-10T04:56:39;10.18;;;5.35;;
78732;SDS011;68056;52.530;5.454;2023-05-10T04:59:05;12.98;;;5.60;;
78732;SDS011;68056;52.530;5.454;2023-05-10T05:01:31;9.27;;;5.10;;
78732;SDS011;68056;52.530;5.454;2023-05-10T05:03:57;13.82;;;5.60;;
78732;SDS011;68056;52.530;5.454;2023-05-10T05:06:23;10.38;;;5.18;;
78732;SDS011;68056;52.530;5.454;2023-05-10T05:08:50;11.90;;;5.15;;
78732;SDS011;68056;52.530;5.454;2023-05-10T05:11:16;8.55;;;4.43;;
78732;SDS011;68056;52.530;5.454;2023-05-10T05:13:44;11.13;;;4.57;;
78732;SDS011;68056;52.530;5.454;2023-05-10T05:16:10;10.30;;;5.00;;
78732;SDS011;68056;52.530;5.454;2023-05-10T05:18:37;12.63;;;5.47;;
78732;SDS011;68056;52.530;5.454;2023-05-10T05:21:03;6.85;;;4.10;;
78732;SDS011;68056;52.530;5.454;2023-05-10T05:23:39;8.95;;;3.85;;
78732;SDS011;68056;52.530;5.454;2023-05-10T05:26:04;6.47;;;3.72;;
78732;SDS011;68056;52.530;5.454;2023-05-10T05:28:31;8.00;;;4.13;;
78732;SDS011;68056;52.530;5.454;2023-05-10T05:31:01;8.98;;;3.70;;
78732;SDS011;68056;52.530;5.454;2023-05-10T05:33:26;10.10;;;4.43;;
78732;SDS011;68056;52.530;5.454;2023-05-10T05:35:52;9.95;;;4.63;;
78732;SDS011;68056;52.530;5.454;2023-05-10T05:38:17;8.00;;;3.67;;
78732;SDS011;68056;52.530;5.454;2023-05-10T05:40:43;7.75;;;3.88;;
78732;SDS011;68056;52.530;5.454;2023-05-10T05:43:10;8.20;;;3.80;;
78732;SDS011;68056;52.530;5.454;2023-05-10T05:45:36;8.98;;;4.18;;
78732;SDS011;68056;52.530;5.454;2023-05-10T05:48:01;9.60;;;4.32;;
78732;SDS011;68056;52.530;5.454;2023-05-10T05:50:27;6.55;;;3.45;;
78732;SDS011;68056;52.530;5.454;2023-05-10T05:52:53;6.65;;;3.80;;
78732;SDS011;68056;52.530;5.454;2023-05-10T05:55:18;10.25;;;4.15;;
78732;SDS011;68056;52.530;5.454;2023-05-10T05:57:44;8.38;;;4.15;;
78732;SDS011;68056;52.530;5.454;2023-05-10T06:00:09;8.75;;;3.92;;
78732;SDS011;68056;52.530;5.454;2023-05-10T06:02:35;7.78;;;4.03;;
78732;SDS011;68056;52.530;5.454;2023-05-10T06:05:01;7.60;;;4.70;;
78732;SDS011;68056;52.530;5.454;2023-05-10T06:07:27;7.35;;;4.75;;
78732;SDS011;68056;52.530;5.454;2023-05-10T06:09:53;7.10;;;3.90;;
78732;SDS011;68056;52.530;5.454;2023-05-10T06:12:18;5.78;;;3.60;;
78732;SDS011;68056;52.530;5.454;2023-05-10T06:14:44;7.45;;;4.30;;
78732;SDS011;68056;52.530;5.454;2023-05-10T06:17:09;6.82;;;3.90;;
78732;SDS011;68056;52.530;5.454;2023-05-10T06:19:35;7.38;;;4.10;;
78732;SDS011;68056;52.530;5.454;2023-05-10T06:22:01;7.38;;;4.05;;
78732;SDS011;68056;52.530;5.454;2023-05-10T06:24:27;6.65;;;3.88;;
78732;SDS011;68056;52.530;5.454;2023-05-10T06:26:52;8.73;;;4.65;;
78732;SDS011;68056;52.530;5.454;2023-05-10T06:29:18;8.00;;;4.22;;
78732;SDS011;68056;52.530;5.454;2023-05-10T06:31:44;8.30;;;4.68;;
78732;SDS011;68056;52.530;5.454;2023-05-10T06:34:09;7.20;;;4.72;;
78732;SDS011;68056;52.530;5.454;2023-05-10T06:36:36;9.35;;;4.65;;
78732;SDS011;68056;52.530;5.454;2023-05-10T06:39:02;8.35;;;4.60;;
78732;SDS011;68056;52.530;5.454;2023-05-10T06:41:36;7.70;;;3.97;;
78732;SDS011;68056;52.530;5.454;2023-05-10T06:44:02;8.20;;;4.47;;
78732;SDS011;68056;52.530;5.454;2023-05-10T06:46:28;9.52;;;5.00;;
78732;SDS011;68056;52.530;5.454;2023-05-10T06:48:54;8.63;;;4.60;;
78732;SDS011;68056;52.530;5.454;2023-05-10T06:51:21;8.25;;;4.53;;
78732;SDS011;68056;52.530;5.454;2023-05-10T06:53:46;10.48;;;4.82;;
78732;SDS011;68056;52.530;5.454;2023-05-10T06:56:12;9.00;;;5.15;;
78732;SDS011;68056;52.530;5.454;2023-05-10T06:58:38;8.60;;;4.65;;
78732;SDS011;68056;52.530;5.454;2023-05-10T07:01:04;7.60;;;4.63;;
78732;SDS011;68056;52.530;5.454;2023-05-10T07:03:31;12.13;;;4.97;;
78732;SDS011;68056;52.530;5.454;2023-05-10T07:06:00;9.52;;;4.55;;
78732;SDS011;68056;52.530;5.454;2023-05-10T07:08:32;8.88;;;4.97;;
78732;SDS011;68056;52.530;5.454;2023-05-10T07:11:03;8.13;;;4.25;;
78732;SDS011;68056;52.530;5.454;2023-05-10T07:13:30;8.00;;;4.82;;
78732;SDS011;68056;52.530;5.454;2023-05-10T07:15:56;8.75;;;5.28;;
78732;SDS011;68056;52.530;5.454;2023-05-10T07:18:23;9.45;;;4.70;;
78732;SDS011;68056;52.530;5.454;2023-05-10T07:20:49;8.88;;;5.13;;
78732;SDS011;68056;52.530;5.454;2023-05-10T07:23:14;9.93;;;5.78;;
78732;SDS011;68056;52.530;5.454;2023-05-10T07:25:40;9.57;;;5.88;;
78732;SDS011;68056;52.530;5.454;2023-05-10T07:28:07;13.07;;;5.47;;
78732;SDS011;68056;52.530;5.454;2023-05-10T07:30:34;7.93;;;4.57;;
78732;SDS011;68056;52.530;5.454;2023-05-10T07:33:00;8.18;;;5.18;;
78732;SDS011;68056;52.530;5.454;2023-05-10T07:35:26;11.07;;;5.72;;
78732;SDS011;68056;52.530;5.454;2023-05-10T07:37:52;9.82;;;5.65;;
78732;SDS011;68056;52.530;5.454;2023-05-10T07:40:17;7.85;;;4.90;;
78732;SDS011;68056;52.530;5.454;2023-05-10T07:42:43;11.20;;;5.32;;
78732;SDS011;68056;52.530;5.454;2023-05-10T07:45:09;11.32;;;6.00;;
78732;SDS011;68056;52.530;5.454;2023-05-10T07:47:34;9.75;;;5.63;;
78732;SDS011;68056;52.530;5.454;2023-05-10T07:50:00;10.18;;;5.28;;
78732;SDS011;68056;52.530;5.454;2023-05-10T07:52:26;7.40;;;4.18;;
78732;SDS011;68056;52.530;5.454;2023-05-10T07:54:52;8.05;;;4.90;;
78732;SDS011;68056;52.530;5.454;2023-05-10T07:57:18;9.05;;;5.32;;
78732;SDS011;68056;52.530;5.454;2023-05-10T07:59:44;7.65;;;5.13;;
78732;SDS011;68056;52.530;5.454;2023-05-10T08:02:10;8.82;;;5.13;;
78732;SDS011;68056;52.530;5.454;2023-05-10T08:04:35;8.63;;;5.15;;
78732;SDS011;68056;52.530;5.454;2023-05-10T08:07:01;8.93;;;5.55;;
78732;SDS011;68056;52.530;5.454;2023-05-10T08:09:26;7.20;;;4.70;;
78732;SDS011;68056;52.530;5.454;2023-05-10T08:11:52;9.80;;;5.03;;
78732;SDS011;68056;52.530;5.454;2023-05-10T08:14:18;7.18;;;4.50;;
78732;SDS011;68056;52.530;5.454;2023-05-10T08:16:43;6.85;;;4.00;;
78732;SDS011;68056;52.530;5.454;2023-05-10T08:19:09;6.40;;;4.38;;
78732;SDS011;68056;52.530;5.454;2023-05-10T08:21:34;7.13;;;4.65;;
78732;SDS011;68056;52.530;5.454;2023-05-10T08:24:01;8.80;;;4.38;;
78732;SDS011;68056;52.530;5.454;2023-05-10T08:26:27;6.65;;;4.88;;
78732;SDS011;68056;52.530;5.454;2023-05-10T08:28:52;7.35;;;4.65;;
78732;SDS011;68056;52.530;5.454;2023-05-10T08:31:18;8.15;;;4.60;;
78732;SDS011;68056;52.530;5.454;2023-05-10T08:33:43;7.70;;;4.70;;
78732;SDS011;68056;52.530;5.454;2023-05-10T08:36:09;8.27;;;4.75;;
78732;SDS011;68056;52.530;5.454;2023-05-10T08:38:35;7.40;;;3.80;;
78732;SDS011;68056;52.530;5.454;2023-05-10T08:41:02;8.57;;;5.75;;
78732;SDS011;68056;52.530;5.454;2023-05-10T08:43:29;6.45;;;4.20;;
78732;SDS011;68056;52.530;5.454;2023-05-10T08:45:55;7.38;;;4.72;;
78732;SDS011;68056;52.530;5.454;2023-05-10T08:48:24;7.15;;;5.07;;
78732;SDS011;68056;52.530;5.454;2023-05-10T08:50:51;7.55;;;4.90;;
78732;SDS011;68056;52.530;5.454;2023-05-10T08:53:25;11.68;;;5.28;;
78732;SDS011;68056;52.530;5.454;2023-05-10T08:55:52;8.57;;;5.53;;
78732;SDS011;68056;52.530;5.454;2023-05-10T08:58:18;7.60;;;4.65;;
78732;SDS011;68056;52.530;5.454;2023-05-10T09:00:45;8.98;;;4.90;;
78732;SDS011;68056;52.530;5.454;2023-05-10T09:03:15;7.72;;;4.93;;
78732;SDS011;68056;52.530;5.454;2023-05-10T09:05:42;9.50;;;5.43;;
78732;SDS011;68056;52.530;5.454;2023-05-10T09:08:10;7.82;;;5.00;;
78732;SDS011;68056;52.530;5.454;2023-05-10T09:10:36;8.55;;;4.80;;
78732;SDS011;68056;52.530;5.454;2023-05-10T09:13:04;7.78;;;4.68;;
78732;SDS011;68056;52.530;5.454;2023-05-10T09:15:30;8.63;;;4.55;;
78732;SDS011;68056;52.530;5.454;2023-05-10T09:17:56;6.47;;;4.35;;
78732;SDS011;68056;52.530;5.454;2023-05-10T09:20:22;9.02;;;4.90;;
78732;SDS011;68056;52.530;5.454;2023-05-10T09:22:48;6.15;;;4.18;;
78732;SDS011;68056;52.530;5.454;2023-05-10T09:25:17;6.30;;;4.40;;
78732;SDS011;68056;52.530;5.454;2023-05-10T09:27:46;8.65;;;4.97;;
78732;SDS011;68056;52.530;5.454;2023-05-10T09:30:30;4.93;;;3.55;;
78732;SDS011;68056;52.530;5.454;2023-05-10T09:32:57;6.60;;;4.10;;
78732;SDS011;68056;52.530;5.454;2023-05-10T09:35:24;6.72;;;4.32;;
78732;SDS011;68056;52.530;5.454;2023-05-10T09:37:52;8.07;;;4.70;;
78732;SDS011;68056;52.530;5.454;2023-05-10T09:40:20;7.13;;;4.32;;
78732;SDS011;68056;52.530;5.454;2023-05-10T09:45:25;6.90;;;4.00;;
78732;SDS011;68056;52.530;5.454;2023-05-10T09:47:55;9.10;;;5.20;;
78732;SDS011;68056;52.530;5.454;2023-05-10T09:50:21;6.45;;;4.13;;
78732;SDS011;68056;52.530;5.454;2023-05-10T09:52:51;7.65;;;4.35;;
78732;SDS011;68056;52.530;5.454;2023-05-10T09:55:23;6.75;;;4.45;;
78732;SDS011;68056;52.530;5.454;2023-05-10T09:58:06;4.95;;;3.58;;
78732;SDS011;68056;52.530;5.454;2023-05-10T10:00:36;4.95;;;3.35;;
78732;SDS011;68056;52.530;5.454;2023-05-10T10:03:02;7.22;;;4.40;;
78732;SDS011;68056;52.530;5.454;2023-05-10T10:05:35;6.53;;;4.75;;
78732;SDS011;68056;52.530;5.454;2023-05-10T10:08:04;7.38;;;4.55;;
78732;SDS011;68056;52.530;5.454;2023-05-10T10:10:31;6.60;;;4.30;;
78732;SDS011;68056;52.530;5.454;2023-05-10T10:12:58;5.60;;;3.97;;
78732;SDS011;68056;52.530;5.454;2023-05-10T10:15:24;5.65;;;3.95;;
78732;SDS011;68056;52.530;5.454;2023-05-10T10:17:50;5.95;;;3.50;;
78732;SDS011;68056;52.530;5.454;2023-05-10T10:20:17;6.25;;;4.32;;
78732;SDS011;68056;52.530;5.454;2023-05-10T10:22:44;5.40;;;4.18;;
78732;SDS011;68056;52.530;5.454;2023-05-10T10:25:10;7.07;;;3.92;;
78732;SDS011;68056;52.530;5.454;2023-05-10T10:27:47;4.75;;;3.58;;
78732;SDS011;68056;52.530;5.454;2023-05-10T10:35:44;5.18;;;3.42;;
78732;SDS011;68056;52.530;5.454;2023-05-10T10:38:12;4.53;;;3.50;;
78732;SDS011;68056;52.530;5.454;2023-05-10T10:48:41;5.85;;;3.75;;
78732;SDS011;68056;52.530;5.454;2023-05-10T10:51:12;5.10;;;3.70;;
78732;SDS011;68056;52.530;5.454;2023-05-10T10:53:39;6.70;;;3.63;;
78732;SDS011;68056;52.530;5.454;2023-05-10T10:58:32;5.65;;;3.63;;
78732;SDS011;68056;52.530;5.454;2023-05-10T11:01:11;5.53;;;3.55;;
78732;SDS011;68056;52.530;5.454;2023-05-10T11:03:38;5.13;;;3.33;;
78732;SDS011;68056;52.530;5.454;2023-05-10T11:06:06;5.43;;;3.33;;
78732;SDS011;68056;52.530;5.454;2023-05-10T11:08:33;6.65;;;3.55;;
78732;SDS011;68056;52.530;5.454;2023-05-10T11:11:07;7.82;;;4.80;;
78732;SDS011;68056;52.530;5.454;2023-05-10T11:13:34;9.15;;;4.68;;
78732;SDS011;68056;52.530;5.454;2023-05-10T11:16:16;4.57;;;3.05;;
78732;SDS011;68056;52.530;5.454;2023-05-10T11:19:04;6.22;;;3.42;;
78732;SDS011;68056;52.530;5.454;2023-05-10T11:21:44;6.95;;;4.05;;
78732;SDS011;68056;52.530;5.454;2023-05-10T11:24:33;6.50;;;3.80;;
78732;SDS011;68056;52.530;5.454;2023-05-10T11:26:58;3.53;;;2.80;;
78732;SDS011;68056;52.530;5.454;2023-05-10T11:29:24;6.95;;;3.75;;
78732;SDS011;68056;52.530;5.454;2023-05-10T11:31:51;6.03;;;3.28;;
78732;SDS011;68056;52.530;5.454;2023-05-10T11:34:24;7.57;;;4.10;;
78732;SDS011;68056;52.530;5.454;2023-05-10T11:36:52;5.70;;;4.25;;
78732;SDS011;68056;52.530;5.454;2023-05-10T11:39:21;4.28;;;3.75;;
78732;SDS011;68056;52.530;5.454;2023-05-10T11:41:50;5.18;;;3.83;;
78732;SDS011;68056;52.530;5.454;2023-05-10T11:44:16;7.75;;;4.43;;
78732;SDS011;68056;52.530;5.454;2023-05-10T11:46:42;5.78;;;3.97;;
78732;SDS011;68056;52.530;5.454;2023-05-10T11:49:07;6.15;;;4.28;;
78732;SDS011;68056;52.530;5.454;2023-05-10T11:51:34;6.75;;;3.80;;
78732;SDS011;68056;52.530;5.454;2023-05-10T11:54:01;4.38;;;3.03;;
78732;SDS011;68056;52.530;5.454;2023-05-10T11:56:34;5.60;;;3.78;;
78732;SDS011;68056;52.530;5.454;2023-05-10T11:59:01;6.55;;;4.53;;
78732;SDS011;68056;52.530;5.454;2023-05-10T12:01:28;7.65;;;4.75;;
78732;SDS011;68056;52.530;5.454;2023-05-10T12:03:55;6.28;;;4.15;;
78732;SDS011;68056;52.530;5.454;2023-05-10T12:06:28;6.30;;;4.28;;
78732;SDS011;68056;52.530;5.454;2023-05-10T12:08:56;7.22;;;4.82;;
78732;SDS011;68056;52.530;5.454;2023-05-10T12:11:24;6.35;;;3.65;;
78732;SDS011;68056;52.530;5.454;2023-05-10T12:13:51;5.32;;;3.92;;
78732;SDS011;68056;52.530;5.454;2023-05-10T12:16:22;5.20;;;3.95;;
78732;SDS011;68056;52.530;5.454;2023-05-10T12:18:51;5.30;;;3.80;;
78732;SDS011;68056;52.530;5.454;2023-05-10T12:23:45;8.10;;;4.35;;
78732;SDS011;68056;52.530;5.454;2023-05-10T12:26:12;3.95;;;3.33;;
78732;SDS011;68056;52.530;5.454;2023-05-10T12:28:37;5.40;;;3.85;;
78732;SDS011;68056;52.530;5.454;2023-05-10T12:31:07;5.28;;;3.60;;
78732;SDS011;68056;52.530;5.454;2023-05-10T12:33:43;6.25;;;4.47;;
78732;SDS011;68056;52.530;5.454;2023-05-10T12:36:10;7.07;;;4.47;;
78732;SDS011;68056;52.530;5.454;2023-05-10T12:38:40;7.43;;;4.95;;
78732;SDS011;68056;52.530;5.454;2023-05-10T12:43:42;7.28;;;4.32;;
78732;SDS011;68056;52.530;5.454;2023-05-10T12:46:09;6.32;;;3.95;;
78732;SDS011;68056;52.530;5.454;2023-05-10T12:48:36;7.90;;;4.95;;
78732;SDS011;68056;52.530;5.454;2023-05-10T12:51:03;6.85;;;4.68;;
78732;SDS011;68056;52.530;5.454;2023-05-10T12:53:29;7.57;;;4.70;;
78732;SDS011;68056;52.530;5.454;2023-05-10T12:55:55;8.70;;;5.10;;
78732;SDS011;68056;52.530;5.454;2023-05-10T12:58:20;7.75;;;5.07;;
78732;SDS011;68056;52.530;5.454;2023-05-10T13:00:46;6.80;;;4.75;;
78732;SDS011;68056;52.530;5.454;2023-05-10T13:03:12;6.25;;;4.43;;
78732;SDS011;68056;52.530;5.454;2023-05-10T13:05:37;7.38;;;4.72;;
78732;SDS011;68056;52.530;5.454;2023-05-10T13:08:03;8.52;;;4.90;;
78732;SDS011;68056;52.530;5.454;2023-05-10T13:10:32;6.95;;;4.18;;
78732;SDS011;68056;52.530;5.454;2023-05-10T13:12:58;7.65;;;4.90;;
78732;SDS011;68056;52.530;5.454;2023-05-10T13:15:25;7.72;;;5.15;;
78732;SDS011;68056;52.530;5.454;2023-05-10T13:17:52;9.45;;;5.10;;
78732;SDS011;68056;52.530;5.454;2023-05-10T13:20:18;6.00;;;4.78;;
78732;SDS011;68056;52.530;5.454;2023-05-10T13:22:45;6.38;;;3.97;;
78732;SDS011;68056;52.530;5.454;2023-05-10T13:25:10;8.23;;;4.43;;
78732;SDS011;68056;52.530;5.454;2023-05-10T13:27:37;6.68;;;4.38;;
78732;SDS011;68056;52.530;5.454;2023-05-10T13:30:04;4.82;;;3.80;;
78732;SDS011;68056;52.530;5.454;2023-05-10T13:32:30;5.55;;;4.15;;
78732;SDS011;68056;52.530;5.454;2023-05-10T13:34:56;6.85;;;3.78;;
78732;SDS011;68056;52.530;5.454;2023-05-10T13:37:21;7.70;;;4.75;;
78732;SDS011;68056;52.530;5.454;2023-05-10T13:39:47;5.72;;;3.92;;
78732;SDS011;68056;52.530;5.454;2023-05-10T13:42:13;6.82;;;3.95;;
78732;SDS011;68056;52.530;5.454;2023-05-10T13:44:39;6.03;;;4.22;;
78732;SDS011;68056;52.530;5.454;2023-05-10T13:47:05;5.03;;;4.03;;
78732;SDS011;68056;52.530;5.454;2023-05-10T13:49:30;6.07;;;4.20;;
78732;SDS011;68056;52.530;5.454;2023-05-10T13:51:56;5.78;;;4.40;;
78732;SDS011;68056;52.530;5.454;2023-05-10T13:54:23;5.90;;;4.03;;
78732;SDS011;68056;52.530;5.454;2023-05-10T13:56:49;4.10;;;3.40;;
78732;SDS011;68056;52.530;5.454;2023-05-10T13:59:14;3.50;;;2.83;;
78732;SDS011;68056;52.530;5.454;2023-05-10T14:01:40;4.93;;;3.13;;
78732;SDS011;68056;52.530;5.454;2023-05-10T14:04:07;4.90;;;3.38;;
78732;SDS011;68056;52.530;5.454;2023-05-10T14:06:35;4.18;;;3.15;;
78732;SDS011;68056;52.530;5.454;2023-05-10T14:09:01;4.45;;;3.30;;
78732;SDS011;68056;52.530;5.454;2023-05-10T14:11:30;4.82;;;3.55;;
78732;SDS011;68056;52.530;5.454;2023-05-10T14:13:55;4.47;;;3.13;;
78732;SDS011;68056;52.530;5.454;2023-05-10T14:16:22;7.63;;;3.72;;
78732;SDS011;68056;52.530;5.454;2023-05-10T14:18:48;4.43;;;3.35;;
78732;SDS011;68056;52.530;5.454;2023-05-10T14:21:14;4.95;;;3.38;;
78732;SDS011;68056;52.530;5.454;2023-05-10T14:23:40;4.38;;;3.13;;
78732;SDS011;68056;52.530;5.454;2023-05-10T14:26:06;4.63;;;3.35;;
78732;SDS011;68056;52.530;5.454;2023-05-10T14:28:31;3.92;;;2.75;;
78732;SDS011;68056;52.530;5.454;2023-05-10T14:30:57;4.38;;;3.40;;
78732;SDS011;68056;52.530;5.454;2023-05-10T14:33:24;5.03;;;2.70;;
78732;SDS011;68056;52.530;5.454;2023-05-10T14:35:50;5.63;;;2.75;;
78732;SDS011;68056;52.530;5.454;2023-05-10T14:38:15;4.68;;;2.97;;
78732;SDS011;68056;52.530;5.454;2023-05-10T14:40:41;6.28;;;3.42;;
78732;SDS011;68056;52.530;5.454;2023-05-10T14:43:07;3.45;;;2.72;;
78732;SDS011;68056;52.530;5.454;2023-05-10T14:45:33;5.85;;;3.65;;
78732;SDS011;68056;52.530;5.454;2023-05-10T14:47:59;4.95;;;3.40;;
78732;SDS011;68056;52.530;5.454;2023-05-10T14:50:25;4.78;;;3.25;;
78732;SDS011;68056;52.530;5.454;2023-05-10T14:52:51;5.75;;;3.97;;
78732;SDS011;68056;52.530;5.454;2023-05-10T14:55:16;3.72;;;2.75;;
78732;SDS011;68056;52.530;5.454;2023-05-10T14:57:42;3.47;;;2.55;;
78732;SDS011;68056;52.530;5.454;2023-05-10T15:00:09;4.90;;;2.63;;
78732;SDS011;68056;52.530;5.454;2023-05-10T15:02:35;8.90;;;3.13;;
78732;SDS011;68056;52.530;5.454;2023-05-10T15:05:00;8.50;;;3.40;;
78732;SDS011;68056;52.530;5.454;2023-05-10T15:07:26;5.70;;;2.53;;
78732;SDS011;68056;52.530;5.454;2023-05-10T15:09:52;8.50;;;3.13;;
78732;SDS011;68056;52.530;5.454;2023-05-10T15:12:18;4.45;;;2.40;;
78732;SDS011;68056;52.530;5.454;2023-05-10T15:14:43;2.38;;;1.95;;
78732;SDS011;68056;52.530;5.454;2023-05-10T15:17:09;3.55;;;2.10;;
78732;SDS011;68056;52.530;5.454;2023-05-10T15:19:35;2.15;;;1.80;;
78732;SDS011;68056;52.530;5.454;2023-05-10T15:22:02;4.13;;;3.38;;
78732;SDS011;68056;52.530;5.454;2023-05-10T15:24:29;3.33;;;2.80;;
78732;SDS011;68056;52.530;5.454;2023-05-10T15:26:54;4.53;;;3.53;;
78732;SDS011;68056;52.530;5.454;2023-05-10T15:29:23;4.38;;;3.92;;
78732;SDS011;68056;52.530;5.454;2023-05-10T15:31:49;4.78;;;3.28;;